sensor_id;sensor_type;location;lat;lon;timestamp;temperature;humidity
22202;DHT22;11266;51.522;6.302;2023-05-10T08:18:12;14.90;99.90
22202;DHT22;11266;51.522;6.302;2023-05-10T08:18:57;14.90;99.90
22202;DHT22;11266;51.522;6.302;2023-05-10T08:19:43;14.90;99.90
22202;DHT22;11266;51.522;6.302;2023-05-10T08:20:29;14.80;99.90
22202;DHT22;11266;51.522;6.302;2023-05-10T08:21:19;14.70;99.90
22202;DHT22;11266;51.522;6.302;2023-05-10T08:22:05;14.80;99.90
22202;DHT22;11266;51.522;6.302;2023-05-10T08:22:51;14.80;99.90
22202;DHT22;11266;51.522;6.302;2023-05-10T08:23:37;14.70;99.90
22202;DHT22;11266;51.522;6.302;2023-05-10T08:24:22;14.70;99.90
22202;DHT22;11266;51.522;6.302;2023-05-10T08:25:08;14.80;99.90
22202;DHT22;11266;51.522;6.302;2023-05-10T08:25:54;14.80;99.90
22202;DHT22;11266;51.522;6.302;2023-05-10T08:26:40;14.90;99.90
22202;DHT22;11266;51.522;6.302;2023-05-10T08:27:26;15.00;99.90
22202;DHT22;11266;51.522;6.302;2023-05-10T08:28:11;14.90;99.90
22202;DHT22;11266;51.522;6.302;2023-05-10T08:28:57;14.90;99.90
22202;DHT22;11266;51.522;6.302;2023-05-10T08:29:43;14.90;99.90
22202;DHT22;11266;51.522;6.302;2023-05-10T08:30:29;14.90;99.90
22202;DHT22;11266;51.522;6.302;2023-05-10T08:31:15;14.90;99.90
22202;DHT22;11266;51.522;6.302;2023-05-10T08:32:01;14.90;99.90
22202;DHT22;11266;51.522;6.302;2023-05-10T08:32:47;14.80;99.90
22202;DHT22;11266;51.522;6.302;2023-05-10T08:33:33;14.80;99.90
22202;DHT22;11266;51.522;6.302;2023-05-10T08:34:18;14.80;99.90
22202;DHT22;11266;51.522;6.302;2023-05-10T08:35:04;14.70;99.90
22202;DHT22;11266;51.522;6.302;2023-05-10T08:35:50;14.80;99.90
22202;DHT22;11266;51.522;6.302;2023-05-10T08:36:36;14.80;99.90
22202;DHT22;11266;51.522;6.302;2023-05-10T08:37:23;14.80;99.90
22202;DHT22;11266;51.522;6.302;2023-05-10T08:38:09;14.80;99.90
22202;DHT22;11266;51.522;6.302;2023-05-10T08:38:55;14.80;99.90
22202;DHT22;11266;51.522;6.302;2023-05-10T08:39:40;14.80;99.90
22202;DHT22;11266;51.522;6.302;2023-05-10T08:40:26;14.90;99.90
22202;DHT22;11266;51.522;6.302;2023-05-10T08:41:13;14.80;99.90
22202;DHT22;11266;51.522;6.302;2023-05-10T08:42:01;14.80;99.90
22202;DHT22;11266;51.522;6.302;2023-05-10T08:42:54;14.80;99.90
22202;DHT22;11266;51.522;6.302;2023-05-10T08:43:41;14.90;99.90
22202;DHT22;11266;51.522;6.302;2023-05-10T08:44:35;14.90;99.90
22202;DHT22;11266;51.522;6.302;2023-05-10T08:45:23;14.90;99.90
22202;DHT22;11266;51.522;6.302;2023-05-10T08:46:10;14.90;99.90
22202;DHT22;11266;51.522;6.302;2023-05-10T08:46:57;14.80;99.90
22202;DHT22;11266;51.522;6.302;2023-05-10T08:47:45;14.70;99.90
22202;DHT22;11266;51.522;6.302;2023-05-10T08:48:33;14.70;99.90
22202;DHT22;11266;51.522;6.302;2023-05-10T08:49:20;14.70;99.90
22202;DHT22;11266;51.522;6.302;2023-05-10T08:50:06;14.70;99.90
22202;DHT22;11266;51.522;6.302;2023-05-10T08:50:53;14.60;99.90
22202;DHT22;11266;51.522;6.302;2023-05-10T08:51:44;14.60;99.90
22202;DHT22;11266;51.522;6.302;2023-05-10T08:52:33;14.70;99.90
22202;DHT22;11266;51.522;6.302;2023-05-10T08:53:25;14.70;99.90
22202;DHT22;11266;51.522;6.302;2023-05-10T08:54:13;14.70;99.90
22202;DHT22;11266;51.522;6.302;2023-05-10T08:54:59;14.70;99.90
22202;DHT22;11266;51.522;6.302;2023-05-10T08:55:45;14.90;99.90
22202;DHT22;11266;51.522;6.302;2023-05-10T08:56:32;14.90;99.90
22202;DHT22;11266;51.522;6.302;2023-05-10T08:57:19;14.90;99.90
22202;DHT22;11266;51.522;6.302;2023-05-10T08:58:06;14.80;99.90
22202;DHT22;11266;51.522;6.302;2023-05-10T08:58:51;14.80;99.90
22202;DHT22;11266;51.522;6.302;2023-05-10T08:59:38;14.80;99.90
22202;DHT22;11266;51.522;6.302;2023-05-10T09:00:25;14.80;99.90
22202;DHT22;11266;51.522;6.302;2023-05-10T09:01:12;14.70;99.90
22202;DHT22;11266;51.522;6.302;2023-05-10T09:01:59;14.60;99.90
22202;DHT22;11266;51.522;6.302;2023-05-10T09:02:45;14.70;99.90
22202;DHT22;11266;51.522;6.302;2023-05-10T09:03:34;14.70;99.90
22202;DHT22;11266;51.522;6.302;2023-05-10T09:04:21;14.80;99.90
22202;DHT22;11266;51.522;6.302;2023-05-10T09:05:07;15.00;99.90
22202;DHT22;11266;51.522;6.302;2023-05-10T09:05:53;15.00;99.90
22202;DHT22;11266;51.522;6.302;2023-05-10T09:06:41;15.00;99.90
22202;DHT22;11266;51.522;6.302;2023-05-10T09:07:27;15.00;99.90
22202;DHT22;11266;51.522;6.302;2023-05-10T09:08:14;14.90;99.90
22202;DHT22;11266;51.522;6.302;2023-05-10T09:09:01;14.80;99.90
22202;DHT22;11266;51.522;6.302;2023-05-10T09:09:49;14.80;99.90
22202;DHT22;11266;51.522;6.302;2023-05-10T09:10:35;14.90;99.90
22202;DHT22;11266;51.522;6.302;2023-05-10T09:11:22;14.80;99.90
22202;DHT22;11266;51.522;6.302;2023-05-10T09:12:09;14.80;99.90
22202;DHT22;11266;51.522;6.302;2023-05-10T09:12:57;14.90;99.90
22202;DHT22;11266;51.522;6.302;2023-05-10T09:13:43;14.80;99.90
22202;DHT22;11266;51.522;6.302;2023-05-10T09:14:30;14.80;99.90
22202;DHT22;11266;51.522;6.302;2023-05-10T09:15:16;14.90;99.90
22202;DHT22;11266;51.522;6.302;2023-05-10T09:16:04;14.90;99.90
22202;DHT22;11266;51.522;6.302;2023-05-10T09:16:50;15.00;99.90
22202;DHT22;11266;51.522;6.302;2023-05-10T09:17:38;14.90;99.90
22202;DHT22;11266;51.522;6.302;2023-05-10T09:18:25;14.80;99.90
22202;DHT22;11266;51.522;6.302;2023-05-10T09:19:11;14.70;99.90
22202;DHT22;11266;51.522;6.302;2023-05-10T09:20:00;14.80;99.90
22202;DHT22;11266;51.522;6.302;2023-05-10T09:20:47;14.70;99.90
22202;DHT22;11266;51.522;6.302;2023-05-10T09:21:38;14.70;99.90
22202;DHT22;11266;51.522;6.302;2023-05-10T09:22:27;14.70;99.90
22202;DHT22;11266;51.522;6.302;2023-05-10T09:23:13;14.70;99.90
22202;DHT22;11266;51.522;6.302;2023-05-10T09:24:03;14.70;99.90
22202;DHT22;11266;51.522;6.302;2023-05-10T09:25:10;14.70;99.90
22202;DHT22;11266;51.522;6.302;2023-05-10T09:26:03;14.70;99.90
22202;DHT22;11266;51.522;6.302;2023-05-10T09:26:50;14.60;99.90
22202;DHT22;11266;51.522;6.302;2023-05-10T09:27:36;14.70;99.90
22202;DHT22;11266;51.522;6.302;2023-05-10T09:28:22;14.70;99.90
22202;DHT22;11266;51.522;6.302;2023-05-10T09:29:08;14.70;99.90
22202;DHT22;11266;51.522;6.302;2023-05-10T09:29:54;14.90;99.90
22202;DHT22;11266;51.522;6.302;2023-05-10T09:30:40;14.90;99.90
22202;DHT22;11266;51.522;6.302;2023-05-10T09:31:48;14.90;99.90
22202;DHT22;11266;51.522;6.302;2023-05-10T09:33:23;14.70;99.90
22202;DHT22;11266;51.522;6.302;2023-05-10T09:34:09;14.70;99.90
22202;DHT22;11266;51.522;6.302;2023-05-10T09:34:55;14.70;99.90
22202;DHT22;11266;51.522;6.302;2023-05-10T09:35:41;14.70;99.90
22202;DHT22;11266;51.522;6.302;2023-05-10T09:36:28;14.70;99.90
22202;DHT22;11266;51.522;6.302;2023-05-10T09:37:14;14.70;99.90
22202;DHT22;11266;51.522;6.302;2023-05-10T09:38:03;14.80;99.90
22202;DHT22;11266;51.522;6.302;2023-05-10T09:38:51;14.80;99.90
22202;DHT22;11266;51.522;6.302;2023-05-10T09:39:39;14.80;99.90
22202;DHT22;11266;51.522;6.302;2023-05-10T09:40:28;14.80;99.90
22202;DHT22;11266;51.522;6.302;2023-05-10T09:41:18;14.70;99.90
22202;DHT22;11266;51.522;6.302;2023-05-10T09:42:08;14.70;99.90
22202;DHT22;11266;51.522;6.302;2023-05-10T09:43:08;14.60;99.90
22202;DHT22;11266;51.522;6.302;2023-05-10T09:43:56;14.70;99.90
22202;DHT22;11266;51.522;6.302;2023-05-10T09:44:42;14.70;99.90
22202;DHT22;11266;51.522;6.302;2023-05-10T09:45:32;14.70;99.90
22202;DHT22;11266;51.522;6.302;2023-05-10T09:46:18;14.80;99.90
22202;DHT22;11266;51.522;6.302;2023-05-10T09:47:04;14.90;99.90
22202;DHT22;11266;51.522;6.302;2023-05-10T09:47:50;14.80;99.90
22202;DHT22;11266;51.522;6.302;2023-05-10T09:48:46;14.90;99.90
22202;DHT22;11266;51.522;6.302;2023-05-10T09:49:32;14.90;99.90
22202;DHT22;11266;51.522;6.302;2023-05-10T09:50:19;14.90;99.90
22202;DHT22;11266;51.522;6.302;2023-05-10T09:51:05;14.90;99.90
22202;DHT22;11266;51.522;6.302;2023-05-10T09:52:17;15.10;99.90
22202;DHT22;11266;51.522;6.302;2023-05-10T09:53:03;14.90;99.90
22202;DHT22;11266;51.522;6.302;2023-05-10T09:54:13;14.90;99.90
22202;DHT22;11266;51.522;6.302;2023-05-10T09:54:59;14.90;99.90
22202;DHT22;11266;51.522;6.302;2023-05-10T09:55:46;14.90;99.90
22202;DHT22;11266;51.522;6.302;2023-05-10T09:56:38;14.90;99.90
22202;DHT22;11266;51.522;6.302;2023-05-10T09:57:25;14.90;99.90
22202;DHT22;11266;51.522;6.302;2023-05-10T09:58:13;15.00;99.90
22202;DHT22;11266;51.522;6.302;2023-05-10T09:59:02;15.00;99.90
22202;DHT22;11266;51.522;6.302;2023-05-10T09:59:48;15.00;99.90
22202;DHT22;11266;51.522;6.302;2023-05-10T10:00:36;15.00;99.90
22202;DHT22;11266;51.522;6.302;2023-05-10T10:01:26;14.90;99.90
22202;DHT22;11266;51.522;6.302;2023-05-10T10:02:18;14.90;99.90
22202;DHT22;11266;51.522;6.302;2023-05-10T10:03:05;14.90;99.90
22202;DHT22;11266;51.522;6.302;2023-05-10T10:03:54;15.10;99.90
22202;DHT22;11266;51.522;6.302;2023-05-10T10:04:40;15.10;99.90
22202;DHT22;11266;51.522;6.302;2023-05-10T10:05:35;15.20;99.90
22202;DHT22;11266;51.522;6.302;2023-05-10T10:06:21;15.20;99.90
22202;DHT22;11266;51.522;6.302;2023-05-10T10:07:07;15.20;99.90
22202;DHT22;11266;51.522;6.302;2023-05-10T10:07:53;15.20;99.90
22202;DHT22;11266;51.522;6.302;2023-05-10T10:08:39;15.30;99.90
22202;DHT22;11266;51.522;6.302;2023-05-10T10:09:25;15.30;99.90
22202;DHT22;11266;51.522;6.302;2023-05-10T10:10:11;15.30;99.90
22202;DHT22;11266;51.522;6.302;2023-05-10T10:11:01;15.30;99.90
22202;DHT22;11266;51.522;6.302;2023-05-10T10:11:47;15.30;99.90
22202;DHT22;11266;51.522;6.302;2023-05-10T10:12:33;15.20;99.90
22202;DHT22;11266;51.522;6.302;2023-05-10T10:13:20;15.20;99.90
22202;DHT22;11266;51.522;6.302;2023-05-10T10:14:06;15.20;99.90
22202;DHT22;11266;51.522;6.302;2023-05-10T10:14:52;15.20;99.90
22202;DHT22;11266;51.522;6.302;2023-05-10T10:15:39;15.20;99.90
22202;DHT22;11266;51.522;6.302;2023-05-10T10:16:26;15.30;99.90
22202;DHT22;11266;51.522;6.302;2023-05-10T10:17:13;15.30;99.90
22202;DHT22;11266;51.522;6.302;2023-05-10T10:17:58;15.30;99.90
22202;DHT22;11266;51.522;6.302;2023-05-10T10:18:45;15.30;99.90
22202;DHT22;11266;51.522;6.302;2023-05-10T10:19:33;15.30;99.90
22202;DHT22;11266;51.522;6.302;2023-05-10T10:20:22;15.30;99.90
22202;DHT22;11266;51.522;6.302;2023-05-10T10:21:08;15.30;99.90
22202;DHT22;11266;51.522;6.302;2023-05-10T10:21:54;15.30;99.90
22202;DHT22;11266;51.522;6.302;2023-05-10T10:22:40;15.30;99.90
22202;DHT22;11266;51.522;6.302;2023-05-10T10:23:26;15.20;99.90
22202;DHT22;11266;51.522;6.302;2023-05-10T10:24:11;15.30;99.90
22202;DHT22;11266;51.522;6.302;2023-05-10T10:24:57;15.20;99.90
22202;DHT22;11266;51.522;6.302;2023-05-10T10:25:45;15.20;99.90
22202;DHT22;11266;51.522;6.302;2023-05-10T10:26:35;15.30;99.90
22202;DHT22;11266;51.522;6.302;2023-05-10T10:27:39;15.30;99.90
22202;DHT22;11266;51.522;6.302;2023-05-10T10:29:44;15.30;99.90
22202;DHT22;11266;51.522;6.302;2023-05-10T10:30:41;15.30;99.90
22202;DHT22;11266;51.522;6.302;2023-05-10T10:31:46;15.30;99.90
22202;DHT22;11266;51.522;6.302;2023-05-10T10:34:03;15.40;99.90
22202;DHT22;11266;51.522;6.302;2023-05-10T10:34:51;15.50;99.90
22202;DHT22;11266;51.522;6.302;2023-05-10T10:35:37;15.40;99.90
22202;DHT22;11266;51.522;6.302;2023-05-10T10:36:23;15.40;99.90
22202;DHT22;11266;51.522;6.302;2023-05-10T10:37:12;15.40;99.90
22202;DHT22;11266;51.522;6.302;2023-05-10T10:37:58;15.50;99.90
22202;DHT22;11266;51.522;6.302;2023-05-10T10:39:33;15.50;99.90
22202;DHT22;11266;51.522;6.302;2023-05-10T10:40:32;15.40;99.90
22202;DHT22;11266;51.522;6.302;2023-05-10T10:41:56;15.30;99.90
22202;DHT22;11266;51.522;6.302;2023-05-10T10:42:44;15.30;99.90
22202;DHT22;11266;51.522;6.302;2023-05-10T10:43:31;15.20;99.90
22202;DHT22;11266;51.522;6.302;2023-05-10T10:45:13;15.20;99.90
22202;DHT22;11266;51.522;6.302;2023-05-10T10:46:16;15.10;99.90
22202;DHT22;11266;51.522;6.302;2023-05-10T10:47:04;15.30;99.90
22202;DHT22;11266;51.522;6.302;2023-05-10T10:49:10;15.50;99.90
22202;DHT22;11266;51.522;6.302;2023-05-10T10:50:04;15.50;99.90
22202;DHT22;11266;51.522;6.302;2023-05-10T10:50:57;15.50;99.90
22202;DHT22;11266;51.522;6.302;2023-05-10T10:52:25;15.50;99.90
22202;DHT22;11266;51.522;6.302;2023-05-10T10:53:16;15.50;99.90
22202;DHT22;11266;51.522;6.302;2023-05-10T10:54:11;15.50;99.90
22202;DHT22;11266;51.522;6.302;2023-05-10T10:55:07;15.50;99.90
22202;DHT22;11266;51.522;6.302;2023-05-10T10:56:12;15.50;99.90
22202;DHT22;11266;51.522;6.302;2023-05-10T10:57:13;15.40;99.90
22202;DHT22;11266;51.522;6.302;2023-05-10T10:57:59;15.50;99.90
22202;DHT22;11266;51.522;6.302;2023-05-10T10:58:51;15.60;99.90
22202;DHT22;11266;51.522;6.302;2023-05-10T10:59:47;15.70;99.90
22202;DHT22;11266;51.522;6.302;2023-05-10T11:00:36;15.70;99.90
22202;DHT22;11266;51.522;6.302;2023-05-10T11:01:22;15.80;99.90
22202;DHT22;11266;51.522;6.302;2023-05-10T11:02:08;15.90;99.90
22202;DHT22;11266;51.522;6.302;2023-05-10T11:03:09;15.90;99.90
22202;DHT22;11266;51.522;6.302;2023-05-10T11:04:45;15.80;99.90
22202;DHT22;11266;51.522;6.302;2023-05-10T11:05:42;15.70;99.90
22202;DHT22;11266;51.522;6.302;2023-05-10T11:06:35;15.80;99.90
22202;DHT22;11266;51.522;6.302;2023-05-10T11:07:21;15.90;99.90
22202;DHT22;11266;51.522;6.302;2023-05-10T11:08:26;15.90;99.90
22202;DHT22;11266;51.522;6.302;2023-05-10T11:09:13;15.80;99.90
22202;DHT22;11266;51.522;6.302;2023-05-10T11:10:04;15.90;99.90
22202;DHT22;11266;51.522;6.302;2023-05-10T11:11:13;15.90;99.90
22202;DHT22;11266;51.522;6.302;2023-05-10T11:12:07;15.90;99.90
22202;DHT22;11266;51.522;6.302;2023-05-10T11:13:07;16.00;99.90
22202;DHT22;11266;51.522;6.302;2023-05-10T11:13:53;16.00;99.90
22202;DHT22;11266;51.522;6.302;2023-05-10T11:14:50;16.00;99.90
22202;DHT22;11266;51.522;6.302;2023-05-10T11:15:40;16.00;99.90
22202;DHT22;11266;51.522;6.302;2023-05-10T11:16:43;16.00;99.90
22202;DHT22;11266;51.522;6.302;2023-05-10T11:17:29;16.00;99.90
22202;DHT22;11266;51.522;6.302;2023-05-10T11:18:21;15.90;99.90
22202;DHT22;11266;51.522;6.302;2023-05-10T11:19:13;15.90;99.90
22202;DHT22;11266;51.522;6.302;2023-05-10T11:20:14;15.90;99.90
22202;DHT22;11266;51.522;6.302;2023-05-10T11:21:01;16.00;99.90
22202;DHT22;11266;51.522;6.302;2023-05-10T11:22:12;16.00;99.90
22202;DHT22;11266;51.522;6.302;2023-05-10T11:23:12;16.00;99.90
22202;DHT22;11266;51.522;6.302;2023-05-10T11:24:08;16.10;99.90
22202;DHT22;11266;51.522;6.302;2023-05-10T11:24:58;16.10;99.90
22202;DHT22;11266;51.522;6.302;2023-05-10T11:25:46;16.00;99.90
22202;DHT22;11266;51.522;6.302;2023-05-10T11:26:36;16.10;99.90
22202;DHT22;11266;51.522;6.302;2023-05-10T11:27:22;16.10;99.90
22202;DHT22;11266;51.522;6.302;2023-05-10T11:28:08;16.10;99.90
22202;DHT22;11266;51.522;6.302;2023-05-10T11:28:54;16.30;99.90
22202;DHT22;11266;51.522;6.302;2023-05-10T11:29:44;16.30;99.90
22202;DHT22;11266;51.522;6.302;2023-05-10T11:30:31;16.20;99.90
22202;DHT22;11266;51.522;6.302;2023-05-10T11:31:18;16.20;99.90
22202;DHT22;11266;51.522;6.302;2023-05-10T11:32:05;16.20;99.90
22202;DHT22;11266;51.522;6.302;2023-05-10T11:32:53;16.20;99.90
22202;DHT22;11266;51.522;6.302;2023-05-10T11:34:01;16.20;99.90
22202;DHT22;11266;51.522;6.302;2023-05-10T11:34:47;16.30;99.90
22202;DHT22;11266;51.522;6.302;2023-05-10T11:35:39;16.40;99.90
22202;DHT22;11266;51.522;6.302;2023-05-10T11:36:32;16.40;99.90
22202;DHT22;11266;51.522;6.302;2023-05-10T11:37:18;16.40;99.90
22202;DHT22;11266;51.522;6.302;2023-05-10T11:38:08;16.50;99.90
22202;DHT22;11266;51.522;6.302;2023-05-10T11:38:55;16.50;99.90
22202;DHT22;11266;51.522;6.302;2023-05-10T11:39:45;16.60;99.90
22202;DHT22;11266;51.522;6.302;2023-05-10T11:40:33;16.60;99.90
22202;DHT22;11266;51.522;6.302;2023-05-10T11:41:19;16.60;99.90
22202;DHT22;11266;51.522;6.302;2023-05-10T11:42:08;16.70;99.90
22202;DHT22;11266;51.522;6.302;2023-05-10T11:42:56;16.70;99.90
22202;DHT22;11266;51.522;6.302;2023-05-10T11:43:42;16.70;99.90
22202;DHT22;11266;51.522;6.302;2023-05-10T11:44:32;16.70;99.90
22202;DHT22;11266;51.522;6.302;2023-05-10T11:45:18;16.90;99.90
22202;DHT22;11266;51.522;6.302;2023-05-10T11:46:11;16.90;99.90
22202;DHT22;11266;51.522;6.302;2023-05-10T11:47:01;17.00;99.90
22202;DHT22;11266;51.522;6.302;2023-05-10T11:47:48;17.00;99.90
22202;DHT22;11266;51.522;6.302;2023-05-10T11:48:34;16.90;99.90
22202;DHT22;11266;51.522;6.302;2023-05-10T11:49:23;16.90;99.90
22202;DHT22;11266;51.522;6.302;2023-05-10T11:50:11;17.00;99.90
22202;DHT22;11266;51.522;6.302;2023-05-10T11:50:57;17.00;99.90
22202;DHT22;11266;51.522;6.302;2023-05-10T11:51:43;16.90;99.90
22202;DHT22;11266;51.522;6.302;2023-05-10T11:52:29;16.90;99.90
22202;DHT22;11266;51.522;6.302;2023-05-10T11:53:15;17.00;99.90
22202;DHT22;11266;51.522;6.302;2023-05-10T11:54:06;16.90;99.90
22202;DHT22;11266;51.522;6.302;2023-05-10T11:54:54;17.00;99.90
22202;DHT22;11266;51.522;6.302;2023-05-10T11:55:40;17.00;99.90
22202;DHT22;11266;51.522;6.302;2023-05-10T11:56:26;17.00;99.90
22202;DHT22;11266;51.522;6.302;2023-05-10T11:57:11;17.00;99.90
22202;DHT22;11266;51.522;6.302;2023-05-10T11:58:01;17.00;99.90
22202;DHT22;11266;51.522;6.302;2023-05-10T11:58:53;17.20;99.90
22202;DHT22;11266;51.522;6.302;2023-05-10T11:59:40;17.20;99.90
22202;DHT22;11266;51.522;6.302;2023-05-10T12:00:26;17.30;99.90
22202;DHT22;11266;51.522;6.302;2023-05-10T12:01:11;17.20;99.90
22202;DHT22;11266;51.522;6.302;2023-05-10T12:01:58;17.20;99.90
22202;DHT22;11266;51.522;6.302;2023-05-10T12:02:44;17.20;99.90
22202;DHT22;11266;51.522;6.302;2023-05-10T12:03:30;17.20;99.90
22202;DHT22;11266;51.522;6.302;2023-05-10T12:04:16;17.20;99.90
22202;DHT22;11266;51.522;6.302;2023-05-10T12:05:03;17.30;99.90
22202;DHT22;11266;51.522;6.302;2023-05-10T12:05:50;17.30;99.90
22202;DHT22;11266;51.522;6.302;2023-05-10T12:06:40;17.30;99.90
22202;DHT22;11266;51.522;6.302;2023-05-10T12:07:26;17.30;99.90
22202;DHT22;11266;51.522;6.302;2023-05-10T12:08:19;17.30;99.90
22202;DHT22;11266;51.522;6.302;2023-05-10T12:09:06;17.20;99.90
22202;DHT22;11266;51.522;6.302;2023-05-10T12:10:13;17.30;99.90
22202;DHT22;11266;51.522;6.302;2023-05-10T12:11:07;17.40;99.90
22202;DHT22;11266;51.522;6.302;2023-05-10T12:11:56;17.30;99.90
22202;DHT22;11266;51.522;6.302;2023-05-10T12:12:44;17.30;99.90
22202;DHT22;11266;51.522;6.302;2023-05-10T12:13:30;17.40;99.90
22202;DHT22;11266;51.522;6.302;2023-05-10T12:14:16;17.60;99.90
22202;DHT22;11266;51.522;6.302;2023-05-10T12:15:03;17.60;99.90
22202;DHT22;11266;51.522;6.302;2023-05-10T12:15:49;17.50;99.90
22202;DHT22;11266;51.522;6.302;2023-05-10T12:16:35;17.50;99.90
22202;DHT22;11266;51.522;6.302;2023-05-10T12:17:21;17.50;99.90
22202;DHT22;11266;51.522;6.302;2023-05-10T12:18:11;17.50;99.90
22202;DHT22;11266;51.522;6.302;2023-05-10T12:18:59;17.40;99.90
22202;DHT22;11266;51.522;6.302;2023-05-10T12:19:45;17.30;99.90
22202;DHT22;11266;51.522;6.302;2023-05-10T12:20:31;17.30;99.90
22202;DHT22;11266;51.522;6.302;2023-05-10T12:21:18;17.20;99.90
22202;DHT22;11266;51.522;6.302;2023-05-10T12:22:05;17.10;99.90
22202;DHT22;11266;51.522;6.302;2023-05-10T12:22:53;17.00;99.90
22202;DHT22;11266;51.522;6.302;2023-05-10T12:23:39;16.90;99.90
22202;DHT22;11266;51.522;6.302;2023-05-10T12:24:25;16.90;99.90
22202;DHT22;11266;51.522;6.302;2023-05-10T12:25:11;16.80;99.90
22202;DHT22;11266;51.522;6.302;2023-05-10T12:26:02;16.90;99.90
22202;DHT22;11266;51.522;6.302;2023-05-10T12:26:50;16.80;99.90
22202;DHT22;11266;51.522;6.302;2023-05-10T12:27:36;16.80;99.90
22202;DHT22;11266;51.522;6.302;2023-05-10T12:28:21;16.70;99.90
22202;DHT22;11266;51.522;6.302;2023-05-10T12:30:08;16.80;99.90
22202;DHT22;11266;51.522;6.302;2023-05-10T12:30:54;16.70;99.90
22202;DHT22;11266;51.522;6.302;2023-05-10T12:32:43;16.60;99.90
22202;DHT22;11266;51.522;6.302;2023-05-10T12:33:36;16.60;99.90
22202;DHT22;11266;51.522;6.302;2023-05-10T12:34:29;16.70;99.90
22202;DHT22;11266;51.522;6.302;2023-05-10T12:35:15;16.70;99.90
22202;DHT22;11266;51.522;6.302;2023-05-10T12:36:02;16.70;99.90
22202;DHT22;11266;51.522;6.302;2023-05-10T12:36:51;16.70;99.90
22202;DHT22;11266;51.522;6.302;2023-05-10T12:37:37;16.70;99.90
22202;DHT22;11266;51.522;6.302;2023-05-10T12:38:38;16.60;99.90
22202;DHT22;11266;51.522;6.302;2023-05-10T12:39:24;16.60;99.90
22202;DHT22;11266;51.522;6.302;2023-05-10T12:40:11;16.60;99.90
22202;DHT22;11266;51.522;6.302;2023-05-10T12:40:58;16.70;99.90
22202;DHT22;11266;51.522;6.302;2023-05-10T12:41:44;16.60;99.90
22202;DHT22;11266;51.522;6.302;2023-05-10T12:42:30;16.70;99.90
22202;DHT22;11266;51.522;6.302;2023-05-10T12:43:17;16.80;99.90
22202;DHT22;11266;51.522;6.302;2023-05-10T12:44:02;16.70;99.90
22202;DHT22;11266;51.522;6.302;2023-05-10T12:44:48;16.70;99.90
22202;DHT22;11266;51.522;6.302;2023-05-10T12:45:34;16.70;99.90
22202;DHT22;11266;51.522;6.302;2023-05-10T12:46:20;16.80;99.90
22202;DHT22;11266;51.522;6.302;2023-05-10T12:47:14;16.80;99.90
22202;DHT22;11266;51.522;6.302;2023-05-10T12:48:00;16.80;99.90
22202;DHT22;11266;51.522;6.302;2023-05-10T12:48:46;16.80;99.90
22202;DHT22;11266;51.522;6.302;2023-05-10T12:49:35;16.80;99.90
22202;DHT22;11266;51.522;6.302;2023-05-10T12:50:20;16.90;99.90
22202;DHT22;11266;51.522;6.302;2023-05-10T12:51:07;16.90;99.90
22202;DHT22;11266;51.522;6.302;2023-05-10T12:51:57;16.90;99.90
22202;DHT22;11266;51.522;6.302;2023-05-10T12:52:43;17.00;99.90
22202;DHT22;11266;51.522;6.302;2023-05-10T12:53:29;16.90;99.90
22202;DHT22;11266;51.522;6.302;2023-05-10T12:54:15;17.00;99.90
22202;DHT22;11266;51.522;6.302;2023-05-10T12:55:01;17.00;99.90
22202;DHT22;11266;51.522;6.302;2023-05-10T12:55:48;17.00;99.90
22202;DHT22;11266;51.522;6.302;2023-05-10T12:56:33;17.10;99.90
22202;DHT22;11266;51.522;6.302;2023-05-10T12:57:22;17.10;99.90
22202;DHT22;11266;51.522;6.302;2023-05-10T12:58:08;17.20;99.90
22202;DHT22;11266;51.522;6.302;2023-05-10T12:58:53;17.20;99.90
22202;DHT22;11266;51.522;6.302;2023-05-10T12:59:39;17.20;99.90
22202;DHT22;11266;51.522;6.302;2023-05-10T13:00:25;17.40;99.90
22202;DHT22;11266;51.522;6.302;2023-05-10T13:01:11;17.40;99.90
22202;DHT22;11266;51.522;6.302;2023-05-10T13:01:57;17.50;99.90
22202;DHT22;11266;51.522;6.302;2023-05-10T13:02:43;17.50;99.90
22202;DHT22;11266;51.522;6.302;2023-05-10T13:03:29;17.60;99.90
22202;DHT22;11266;51.522;6.302;2023-05-10T13:04:15;17.50;99.90
22202;DHT22;11266;51.522;6.302;2023-05-10T13:05:00;17.50;99.90
22202;DHT22;11266;51.522;6.302;2023-05-10T13:05:46;17.50;99.90
22202;DHT22;11266;51.522;6.302;2023-05-10T13:06:32;17.40;99.90
22202;DHT22;11266;51.522;6.302;2023-05-10T13:07:18;17.40;99.90
22202;DHT22;11266;51.522;6.302;2023-05-10T13:08:04;17.40;99.90
22202;DHT22;11266;51.522;6.302;2023-05-10T13:08:50;17.50;99.90
22202;DHT22;11266;51.522;6.302;2023-05-10T13:09:36;17.40;99.90
22202;DHT22;11266;51.522;6.302;2023-05-10T13:10:22;17.50;99.90
22202;DHT22;11266;51.522;6.302;2023-05-10T13:11:09;17.50;99.90
22202;DHT22;11266;51.522;6.302;2023-05-10T13:11:55;17.50;99.90
22202;DHT22;11266;51.522;6.302;2023-05-10T13:12:40;17.50;99.90
22202;DHT22;11266;51.522;6.302;2023-05-10T13:13:26;17.60;99.90
22202;DHT22;11266;51.522;6.302;2023-05-10T13:14:12;17.60;99.90
22202;DHT22;11266;51.522;6.302;2023-05-10T13:14:58;17.60;99.90
22202;DHT22;11266;51.522;6.302;2023-05-10T13:15:44;17.60;99.90
22202;DHT22;11266;51.522;6.302;2023-05-10T13:16:30;17.60;99.90
22202;DHT22;11266;51.522;6.302;2023-05-10T13:17:16;17.60;99.90
22202;DHT22;11266;51.522;6.302;2023-05-10T13:18:02;17.60;99.90
22202;DHT22;11266;51.522;6.302;2023-05-10T13:18:47;17.60;99.90
22202;DHT22;11266;51.522;6.302;2023-05-10T13:19:33;17.60;99.90
22202;DHT22;11266;51.522;6.302;2023-05-10T13:20:19;17.60;99.90
22202;DHT22;11266;51.522;6.302;2023-05-10T13:21:05;17.70;99.90
22202;DHT22;11266;51.522;6.302;2023-05-10T13:21:51;17.70;99.90
22202;DHT22;11266;51.522;6.302;2023-05-10T13:22:37;17.70;99.90
22202;DHT22;11266;51.522;6.302;2023-05-10T13:23:22;17.80;99.90
22202;DHT22;11266;51.522;6.302;2023-05-10T13:24:08;17.90;99.90
22202;DHT22;11266;51.522;6.302;2023-05-10T13:24:54;17.90;99.90
22202;DHT22;11266;51.522;6.302;2023-05-10T13:25:40;17.80;99.90
22202;DHT22;11266;51.522;6.302;2023-05-10T13:26:26;17.80;99.90
22202;DHT22;11266;51.522;6.302;2023-05-10T13:27:12;17.80;99.90
22202;DHT22;11266;51.522;6.302;2023-05-10T13:28:05;17.80;99.90
22202;DHT22;11266;51.522;6.302;2023-05-10T13:28:56;17.80;99.90
22202;DHT22;11266;51.522;6.302;2023-05-10T13:29:42;17.80;99.90
22202;DHT22;11266;51.522;6.302;2023-05-10T13:30:28;17.70;99.90
22202;DHT22;11266;51.522;6.302;2023-05-10T13:31:14;17.70;99.90
22202;DHT22;11266;51.522;6.302;2023-05-10T13:32:00;17.70;99.90
22202;DHT22;11266;51.522;6.302;2023-05-10T13:32:46;17.70;99.90
22202;DHT22;11266;51.522;6.302;2023-05-10T13:33:31;17.70;99.90
22202;DHT22;11266;51.522;6.302;2023-05-10T13:34:17;17.70;99.90